sensor_id;sensor_type;location;lat;lon;timestamp;temperature;humidity
15241;DHT22;7723;52.170;9.978;2023-07-20T00:02:11;14.80;99.90
15241;DHT22;7723;52.170;9.978;2023-07-20T00:04:38;14.90;99.90
15241;DHT22;7723;52.170;9.978;2023-07-20T00:07:05;14.90;99.90
15241;DHT22;7723;52.170;9.978;2023-07-20T00:09:32;14.90;99.90
15241;DHT22;7723;52.170;9.978;2023-07-20T00:12:01;14.90;99.90
15241;DHT22;7723;52.170;9.978;2023-07-20T00:14:28;14.80;99.90
15241;DHT22;7723;52.170;9.978;2023-07-20T00:16:56;14.80;99.90
15241;DHT22;7723;52.170;9.978;2023-07-20T00:19:23;14.70;99.90
15241;DHT22;7723;52.170;9.978;2023-07-20T00:21:51;14.70;99.90
15241;DHT22;7723;52.170;9.978;2023-07-20T00:24:18;14.80;99.90
15241;DHT22;7723;52.170;9.978;2023-07-20T00:26:46;14.80;99.90
15241;DHT22;7723;52.170;9.978;2023-07-20T00:29:14;14.90;99.90
15241;DHT22;7723;52.170;9.978;2023-07-20T00:31:41;14.90;99.90
15241;DHT22;7723;52.170;9.978;2023-07-20T00:34:09;14.90;99.90
15241;DHT22;7723;52.170;9.978;2023-07-20T00:36:36;14.90;99.90
15241;DHT22;7723;52.170;9.978;2023-07-20T00:39:03;14.80;99.90
15241;DHT22;7723;52.170;9.978;2023-07-20T00:41:30;15.00;99.90
15241;DHT22;7723;52.170;9.978;2023-07-20T00:43:58;15.00;99.90
15241;DHT22;7723;52.170;9.978;2023-07-20T00:46:27;14.90;99.90
15241;DHT22;7723;52.170;9.978;2023-07-20T00:48:54;14.80;99.90
15241;DHT22;7723;52.170;9.978;2023-07-20T00:51:23;14.80;99.90
15241;DHT22;7723;52.170;9.978;2023-07-20T00:53:50;14.70;99.90
15241;DHT22;7723;52.170;9.978;2023-07-20T00:56:17;14.70;99.90
15241;DHT22;7723;52.170;9.978;2023-07-20T00:58:45;14.60;99.90
15241;DHT22;7723;52.170;9.978;2023-07-20T01:01:12;14.60;99.90
15241;DHT22;7723;52.170;9.978;2023-07-20T01:03:41;14.60;99.90
15241;DHT22;7723;52.170;9.978;2023-07-20T01:06:15;14.60;99.90
15241;DHT22;7723;52.170;9.978;2023-07-20T01:08:52;14.70;99.90
15241;DHT22;7723;52.170;9.978;2023-07-20T01:11:28;14.70;99.90
15241;DHT22;7723;52.170;9.978;2023-07-20T01:13:58;14.60;99.90
15241;DHT22;7723;52.170;9.978;2023-07-20T01:16:27;14.60;99.90
15241;DHT22;7723;52.170;9.978;2023-07-20T01:18:55;14.60;99.90
15241;DHT22;7723;52.170;9.978;2023-07-20T01:21:28;14.60;99.90
15241;DHT22;7723;52.170;9.978;2023-07-20T01:24:19;14.60;99.90
15241;DHT22;7723;52.170;9.978;2023-07-20T01:27:08;14.50;99.90
15241;DHT22;7723;52.170;9.978;2023-07-20T01:30:12;14.50;99.90
15241;DHT22;7723;52.170;9.978;2023-07-20T01:32:43;14.40;99.90
15241;DHT22;7723;52.170;9.978;2023-07-20T01:35:12;14.30;99.90
15241;DHT22;7723;52.170;9.978;2023-07-20T01:37:42;14.30;99.90
15241;DHT22;7723;52.170;9.978;2023-07-20T01:40:11;14.20;99.90
15241;DHT22;7723;52.170;9.978;2023-07-20T01:42:39;14.10;99.90
15241;DHT22;7723;52.170;9.978;2023-07-20T01:45:10;14.10;99.90
15241;DHT22;7723;52.170;9.978;2023-07-20T01:47:37;14.10;99.90
15241;DHT22;7723;52.170;9.978;2023-07-20T01:50:06;14.10;99.90
15241;DHT22;7723;52.170;9.978;2023-07-20T01:52:34;14.10;99.90
15241;DHT22;7723;52.170;9.978;2023-07-20T01:55:01;14.10;99.90
15241;DHT22;7723;52.170;9.978;2023-07-20T01:57:28;14.10;99.90
15241;DHT22;7723;52.170;9.978;2023-07-20T01:59:55;14.10;99.90
15241;DHT22;7723;52.170;9.978;2023-07-20T02:02:25;14.10;99.90
15241;DHT22;7723;52.170;9.978;2023-07-20T02:04:53;14.20;99.90
15241;DHT22;7723;52.170;9.978;2023-07-20T02:07:21;14.10;99.90
15241;DHT22;7723;52.170;9.978;2023-07-20T02:09:48;13.50;99.90
15241;DHT22;7723;52.170;9.978;2023-07-20T02:12:16;14.00;99.90
15241;DHT22;7723;52.170;9.978;2023-07-20T02:14:43;14.10;99.90
15241;DHT22;7723;52.170;9.978;2023-07-20T02:17:10;14.00;99.90
15241;DHT22;7723;52.170;9.978;2023-07-20T02:19:37;13.90;99.90
15241;DHT22;7723;52.170;9.978;2023-07-20T02:22:05;13.80;99.90
15241;DHT22;7723;52.170;9.978;2023-07-20T02:24:34;13.90;99.90
15241;DHT22;7723;52.170;9.978;2023-07-20T02:27:01;13.80;99.90
15241;DHT22;7723;52.170;9.978;2023-07-20T02:29:28;13.80;99.90
15241;DHT22;7723;52.170;9.978;2023-07-20T02:31:55;13.80;99.90
15241;DHT22;7723;52.170;9.978;2023-07-20T02:34:22;13.90;99.90
15241;DHT22;7723;52.170;9.978;2023-07-20T02:36:50;13.90;99.90
15241;DHT22;7723;52.170;9.978;2023-07-20T02:39:17;13.90;99.90
15241;DHT22;7723;52.170;9.978;2023-07-20T02:41:45;14.00;99.90
15241;DHT22;7723;52.170;9.978;2023-07-20T02:44:13;13.90;99.90
15241;DHT22;7723;52.170;9.978;2023-07-20T02:46:41;13.90;99.90
15241;DHT22;7723;52.170;9.978;2023-07-20T02:49:08;14.00;99.90
15241;DHT22;7723;52.170;9.978;2023-07-20T02:51:35;14.00;99.90
15241;DHT22;7723;52.170;9.978;2023-07-20T02:54:02;14.00;99.90
15241;DHT22;7723;52.170;9.978;2023-07-20T02:56:31;14.10;99.90
15241;DHT22;7723;52.170;9.978;2023-07-20T02:59:04;14.20;99.90
15241;DHT22;7723;52.170;9.978;2023-07-20T03:01:31;14.20;99.90
15241;DHT22;7723;52.170;9.978;2023-07-20T03:03:58;14.20;99.90
15241;DHT22;7723;52.170;9.978;2023-07-20T03:06:25;14.20;99.90
15241;DHT22;7723;52.170;9.978;2023-07-20T03:08:53;14.10;99.90
15241;DHT22;7723;52.170;9.978;2023-07-20T03:11:20;14.00;99.90
15241;DHT22;7723;52.170;9.978;2023-07-20T03:13:47;14.00;99.90
15241;DHT22;7723;52.170;9.978;2023-07-20T03:16:18;14.00;99.90
15241;DHT22;7723;52.170;9.978;2023-07-20T03:18:46;14.00;99.90
15241;DHT22;7723;52.170;9.978;2023-07-20T03:21:13;14.00;99.90
15241;DHT22;7723;52.170;9.978;2023-07-20T03:23:41;14.50;99.90
15241;DHT22;7723;52.170;9.978;2023-07-20T03:26:09;14.10;99.90
15241;DHT22;7723;52.170;9.978;2023-07-20T03:28:36;14.10;99.90
15241;DHT22;7723;52.170;9.978;2023-07-20T03:31:03;14.10;99.90
15241;DHT22;7723;52.170;9.978;2023-07-20T03:33:32;14.10;99.90
15241;DHT22;7723;52.170;9.978;2023-07-20T03:35:59;14.10;99.90
15241;DHT22;7723;52.170;9.978;2023-07-20T03:38:27;14.10;99.90
15241;DHT22;7723;52.170;9.978;2023-07-20T03:40:55;14.10;99.90
15241;DHT22;7723;52.170;9.978;2023-07-20T03:43:24;14.10;99.90
15241;DHT22;7723;52.170;9.978;2023-07-20T03:45:52;14.20;99.90
15241;DHT22;7723;52.170;9.978;2023-07-20T03:48:20;14.30;99.90
15241;DHT22;7723;52.170;9.978;2023-07-20T03:50:50;14.20;99.90
15241;DHT22;7723;52.170;9.978;2023-07-20T03:53:18;14.30;99.90
15241;DHT22;7723;52.170;9.978;2023-07-20T03:55:45;14.30;99.90
15241;DHT22;7723;52.170;9.978;2023-07-20T03:58:13;14.30;99.90
15241;DHT22;7723;52.170;9.978;2023-07-20T04:00:44;14.40;99.90
15241;DHT22;7723;52.170;9.978;2023-07-20T04:03:11;14.40;99.90
15241;DHT22;7723;52.170;9.978;2023-07-20T04:05:38;14.50;99.90
15241;DHT22;7723;52.170;9.978;2023-07-20T04:08:07;14.50;99.90
15241;DHT22;7723;52.170;9.978;2023-07-20T04:10:34;14.60;99.90
15241;DHT22;7723;52.170;9.978;2023-07-20T04:13:02;14.60;99.90
15241;DHT22;7723;52.170;9.978;2023-07-20T04:15:32;14.60;99.90
15241;DHT22;7723;52.170;9.978;2023-07-20T04:17:59;14.70;99.90
15241;DHT22;7723;52.170;9.978;2023-07-20T04:20:26;14.70;99.90
15241;DHT22;7723;52.170;9.978;2023-07-20T04:22:53;14.80;99.90
15241;DHT22;7723;52.170;9.978;2023-07-20T04:25:22;14.80;99.90
15241;DHT22;7723;52.170;9.978;2023-07-20T04:27:49;14.80;99.90
15241;DHT22;7723;52.170;9.978;2023-07-20T04:30:17;14.90;99.90
15241;DHT22;7723;52.170;9.978;2023-07-20T04:32:47;15.00;99.90
15241;DHT22;7723;52.170;9.978;2023-07-20T04:35:17;14.90;99.90
15241;DHT22;7723;52.170;9.978;2023-07-20T04:37:45;14.90;99.90
15241;DHT22;7723;52.170;9.978;2023-07-20T04:40:12;15.00;99.90
15241;DHT22;7723;52.170;9.978;2023-07-20T04:42:41;15.00;99.90
15241;DHT22;7723;52.170;9.978;2023-07-20T04:45:09;15.10;99.90
15241;DHT22;7723;52.170;9.978;2023-07-20T04:47:36;15.00;99.90
15241;DHT22;7723;52.170;9.978;2023-07-20T04:50:04;15.00;99.90
15241;DHT22;7723;52.170;9.978;2023-07-20T04:52:31;15.00;99.90
15241;DHT22;7723;52.170;9.978;2023-07-20T04:54:58;15.00;99.90
15241;DHT22;7723;52.170;9.978;2023-07-20T04:57:25;15.00;99.90
15241;DHT22;7723;52.170;9.978;2023-07-20T04:59:54;14.90;99.90
15241;DHT22;7723;52.170;9.978;2023-07-20T05:02:21;14.80;99.90
15241;DHT22;7723;52.170;9.978;2023-07-20T05:04:48;14.80;99.90
15241;DHT22;7723;52.170;9.978;2023-07-20T05:07:15;14.80;99.90
15241;DHT22;7723;52.170;9.978;2023-07-20T05:09:42;14.80;99.90
15241;DHT22;7723;52.170;9.978;2023-07-20T05:12:09;14.70;99.90
15241;DHT22;7723;52.170;9.978;2023-07-20T05:14:37;14.70;99.90
15241;DHT22;7723;52.170;9.978;2023-07-20T05:17:06;14.60;99.90
15241;DHT22;7723;52.170;9.978;2023-07-20T05:19:33;14.60;99.90
15241;DHT22;7723;52.170;9.978;2023-07-20T05:22:00;14.50;99.90
15241;DHT22;7723;52.170;9.978;2023-07-20T05:24:27;14.40;99.90
15241;DHT22;7723;52.170;9.978;2023-07-20T05:26:55;14.40;99.90
15241;DHT22;7723;52.170;9.978;2023-07-20T05:29:22;14.30;99.90
15241;DHT22;7723;52.170;9.978;2023-07-20T05:31:49;14.30;99.90
15241;DHT22;7723;52.170;9.978;2023-07-20T05:34:18;14.30;99.90
15241;DHT22;7723;52.170;9.978;2023-07-20T05:37:11;14.30;99.90
15241;DHT22;7723;52.170;9.978;2023-07-20T05:39:38;14.30;99.90
15241;DHT22;7723;52.170;9.978;2023-07-20T05:42:06;14.30;99.90
15241;DHT22;7723;52.170;9.978;2023-07-20T05:44:33;14.30;99.90
15241;DHT22;7723;52.170;9.978;2023-07-20T05:47:00;14.50;99.90
15241;DHT22;7723;52.170;9.978;2023-07-20T05:49:29;14.50;99.90
15241;DHT22;7723;52.170;9.978;2023-07-20T05:51:57;14.50;99.90
15241;DHT22;7723;52.170;9.978;2023-07-20T05:54:24;14.50;99.90
15241;DHT22;7723;52.170;9.978;2023-07-20T05:56:51;14.40;99.90
15241;DHT22;7723;52.170;9.978;2023-07-20T05:59:19;14.30;99.90
15241;DHT22;7723;52.170;9.978;2023-07-20T06:01:46;14.30;99.90
15241;DHT22;7723;52.170;9.978;2023-07-20T06:04:14;14.40;99.90
15241;DHT22;7723;52.170;9.978;2023-07-20T06:06:43;14.30;99.90
15241;DHT22;7723;52.170;9.978;2023-07-20T06:09:10;14.30;99.90
15241;DHT22;7723;52.170;9.978;2023-07-20T06:11:40;14.40;99.90
15241;DHT22;7723;52.170;9.978;2023-07-20T06:14:07;14.50;99.90
15241;DHT22;7723;52.170;9.978;2023-07-20T06:16:34;14.40;99.90
15241;DHT22;7723;52.170;9.978;2023-07-20T06:19:02;14.50;99.90
15241;DHT22;7723;52.170;9.978;2023-07-20T06:21:29;14.40;99.90
15241;DHT22;7723;52.170;9.978;2023-07-20T06:23:58;14.40;99.90
15241;DHT22;7723;52.170;9.978;2023-07-20T06:26:25;14.30;99.90
15241;DHT22;7723;52.170;9.978;2023-07-20T06:28:52;14.30;99.90
15241;DHT22;7723;52.170;9.978;2023-07-20T06:31:19;14.40;99.90
15241;DHT22;7723;52.170;9.978;2023-07-20T06:33:46;14.60;99.90
15241;DHT22;7723;52.170;9.978;2023-07-20T06:36:17;14.80;99.90
15241;DHT22;7723;52.170;9.978;2023-07-20T06:38:44;14.70;99.90
15241;DHT22;7723;52.170;9.978;2023-07-20T06:41:13;14.70;99.90
15241;DHT22;7723;52.170;9.978;2023-07-20T06:43:40;14.70;99.90
15241;DHT22;7723;52.170;9.978;2023-07-20T06:46:08;14.70;99.90
15241;DHT22;7723;52.170;9.978;2023-07-20T06:48:35;14.80;99.90
15241;DHT22;7723;52.170;9.978;2023-07-20T06:51:02;14.90;99.90
15241;DHT22;7723;52.170;9.978;2023-07-20T06:53:30;15.10;99.90
15241;DHT22;7723;52.170;9.978;2023-07-20T06:55:57;15.30;99.90
15241;DHT22;7723;52.170;9.978;2023-07-20T06:58:26;15.20;99.90
15241;DHT22;7723;52.170;9.978;2023-07-20T07:00:54;15.50;99.90
15241;DHT22;7723;52.170;9.978;2023-07-20T07:03:21;15.50;99.90
15241;DHT22;7723;52.170;9.978;2023-07-20T07:05:48;15.60;99.90
15241;DHT22;7723;52.170;9.978;2023-07-20T07:08:17;15.60;99.90
15241;DHT22;7723;52.170;9.978;2023-07-20T07:10:45;15.70;99.90
15241;DHT22;7723;52.170;9.978;2023-07-20T07:13:12;15.70;99.90
15241;DHT22;7723;52.170;9.978;2023-07-20T07:15:42;15.70;99.90
15241;DHT22;7723;52.170;9.978;2023-07-20T07:18:09;15.70;99.90
15241;DHT22;7723;52.170;9.978;2023-07-20T07:20:36;15.80;99.90
15241;DHT22;7723;52.170;9.978;2023-07-20T07:23:03;15.80;99.90
15241;DHT22;7723;52.170;9.978;2023-07-20T07:25:31;15.70;99.90
15241;DHT22;7723;52.170;9.978;2023-07-20T07:27:58;15.90;99.90
15241;DHT22;7723;52.170;9.978;2023-07-20T07:30:25;15.90;99.90
15241;DHT22;7723;52.170;9.978;2023-07-20T07:32:54;15.90;99.90
15241;DHT22;7723;52.170;9.978;2023-07-20T07:35:21;15.80;99.90
15241;DHT22;7723;52.170;9.978;2023-07-20T07:37:48;15.90;99.90
15241;DHT22;7723;52.170;9.978;2023-07-20T07:40:15;16.20;99.90
15241;DHT22;7723;52.170;9.978;2023-07-20T07:42:42;16.60;99.90
15241;DHT22;7723;52.170;9.978;2023-07-20T07:45:10;16.70;99.90
15241;DHT22;7723;52.170;9.978;2023-07-20T07:47:37;17.40;99.90
15241;DHT22;7723;52.170;9.978;2023-07-20T07:50:06;18.50;99.90
15241;DHT22;7723;52.170;9.978;2023-07-20T07:52:33;19.30;99.90
15241;DHT22;7723;52.170;9.978;2023-07-20T07:55:01;20.10;99.90
15241;DHT22;7723;52.170;9.978;2023-07-20T07:57:29;20.80;99.90
15241;DHT22;7723;52.170;9.978;2023-07-20T07:59:57;20.60;99.90
15241;DHT22;7723;52.170;9.978;2023-07-20T08:02:24;20.90;99.90
15241;DHT22;7723;52.170;9.978;2023-07-20T08:04:51;21.30;99.90
15241;DHT22;7723;52.170;9.978;2023-07-20T08:07:20;21.30;99.90
15241;DHT22;7723;52.170;9.978;2023-07-20T08:09:47;21.20;99.90
15241;DHT22;7723;52.170;9.978;2023-07-20T08:12:14;21.20;99.90
15241;DHT22;7723;52.170;9.978;2023-07-20T08:14:43;21.30;99.90
15241;DHT22;7723;52.170;9.978;2023-07-20T08:17:10;21.50;99.90
15241;DHT22;7723;52.170;9.978;2023-07-20T08:19:37;21.20;99.90
15241;DHT22;7723;52.170;9.978;2023-07-20T08:22:07;20.90;99.90
15241;DHT22;7723;52.170;9.978;2023-07-20T08:24:39;20.20;99.90
15241;DHT22;7723;52.170;9.978;2023-07-20T08:27:06;19.90;99.90
15241;DHT22;7723;52.170;9.978;2023-07-20T08:29:34;19.90;99.90
15241;DHT22;7723;52.170;9.978;2023-07-20T08:32:02;20.90;99.90
15241;DHT22;7723;52.170;9.978;2023-07-20T08:34:29;21.60;41.60
15241;DHT22;7723;52.170;9.978;2023-07-20T08:36:57;21.10;1.00
15241;DHT22;7723;52.170;9.978;2023-07-20T08:39:24;21.00;1.00
15241;DHT22;7723;52.170;9.978;2023-07-20T08:41:53;21.30;1.00
15241;DHT22;7723;52.170;9.978;2023-07-20T08:44:21;20.90;99.90
15241;DHT22;7723;52.170;9.978;2023-07-20T08:46:49;20.70;99.90
15241;DHT22;7723;52.170;9.978;2023-07-20T08:49:17;21.30;99.90
15241;DHT22;7723;52.170;9.978;2023-07-20T08:51:46;22.20;1.00
15241;DHT22;7723;52.170;9.978;2023-07-20T08:54:14;21.80;1.00
15241;DHT22;7723;52.170;9.978;2023-07-20T08:56:43;21.50;1.00
15241;DHT22;7723;52.170;9.978;2023-07-20T08:59:17;21.20;1.00
15241;DHT22;7723;52.170;9.978;2023-07-20T09:01:44;20.60;99.90
15241;DHT22;7723;52.170;9.978;2023-07-20T09:04:12;21.80;1.00
15241;DHT22;7723;52.170;9.978;2023-07-20T09:06:40;22.40;99.90
15241;DHT22;7723;52.170;9.978;2023-07-20T09:09:07;21.90;99.90
15241;DHT22;7723;52.170;9.978;2023-07-20T09:11:34;21.50;99.90
15241;DHT22;7723;52.170;9.978;2023-07-20T09:14:05;21.00;99.90
15241;DHT22;7723;52.170;9.978;2023-07-20T09:16:47;19.70;99.90
15241;DHT22;7723;52.170;9.978;2023-07-20T09:19:15;19.80;99.90
15241;DHT22;7723;52.170;9.978;2023-07-20T09:21:44;20.50;1.00
15241;DHT22;7723;52.170;9.978;2023-07-20T09:24:12;21.00;1.00
15241;DHT22;7723;52.170;9.978;2023-07-20T09:26:44;21.90;1.00
15241;DHT22;7723;52.170;9.978;2023-07-20T09:29:14;22.10;99.90
15241;DHT22;7723;52.170;9.978;2023-07-20T09:31:42;23.00;1.00
15241;DHT22;7723;52.170;9.978;2023-07-20T09:34:10;22.40;99.90
15241;DHT22;7723;52.170;9.978;2023-07-20T09:36:38;22.90;1.00
15241;DHT22;7723;52.170;9.978;2023-07-20T09:39:05;23.40;16.90
15241;DHT22;7723;52.170;9.978;2023-07-20T09:41:40;23.60;99.90
15241;DHT22;7723;52.170;9.978;2023-07-20T09:44:08;24.20;1.00
15241;DHT22;7723;52.170;9.978;2023-07-20T09:46:45;24.30;1.00
15241;DHT22;7723;52.170;9.978;2023-07-20T09:49:13;24.00;1.00
15241;DHT22;7723;52.170;9.978;2023-07-20T09:51:41;24.70;1.00
15241;DHT22;7723;52.170;9.978;2023-07-20T09:54:08;25.10;1.00
15241;DHT22;7723;52.170;9.978;2023-07-20T09:56:35;23.60;1.00
15241;DHT22;7723;52.170;9.978;2023-07-20T09:59:04;23.40;99.90
15241;DHT22;7723;52.170;9.978;2023-07-20T10:01:32;23.50;99.90
15241;DHT22;7723;52.170;9.978;2023-07-20T10:04:03;24.10;99.90
15241;DHT22;7723;52.170;9.978;2023-07-20T10:06:34;23.70;1.00
15241;DHT22;7723;52.170;9.978;2023-07-20T10:09:05;24.00;99.90
15241;DHT22;7723;52.170;9.978;2023-07-20T10:11:36;23.80;99.90
15241;DHT22;7723;52.170;9.978;2023-07-20T10:14:04;24.20;1.00
15241;DHT22;7723;52.170;9.978;2023-07-20T10:16:39;24.00;1.00
15241;DHT22;7723;52.170;9.978;2023-07-20T10:19:22;24.50;1.00
15241;DHT22;7723;52.170;9.978;2023-07-20T10:22:00;24.10;1.00
15241;DHT22;7723;52.170;9.978;2023-07-20T10:24:28;23.10;31.80
15241;DHT22;7723;52.170;9.978;2023-07-20T10:26:55;22.90;99.90
15241;DHT22;7723;52.170;9.978;2023-07-20T10:29:24;22.80;99.90
15241;DHT22;7723;52.170;9.978;2023-07-20T10:31:53;23.10;99.90
15241;DHT22;7723;52.170;9.978;2023-07-20T10:34:22;23.30;1.00
15241;DHT22;7723;52.170;9.978;2023-07-20T10:36:50;23.30;1.00
15241;DHT22;7723;52.170;9.978;2023-07-20T10:39:24;23.60;1.00
15241;DHT22;7723;52.170;9.978;2023-07-20T10:42:00;24.00;99.90
15241;DHT22;7723;52.170;9.978;2023-07-20T10:44:27;24.10;1.00
15241;DHT22;7723;52.170;9.978;2023-07-20T10:46:59;23.80;99.90
15241;DHT22;7723;52.170;9.978;2023-07-20T10:49:29;23.30;1.00
15241;DHT22;7723;52.170;9.978;2023-07-20T10:51:58;23.00;1.00
15241;DHT22;7723;52.170;9.978;2023-07-20T10:54:35;22.70;1.00
15241;DHT22;7723;52.170;9.978;2023-07-20T10:57:25;22.30;1.00
15241;DHT22;7723;52.170;9.978;2023-07-20T11:00:08;22.20;1.00
15241;DHT22;7723;52.170;9.978;2023-07-20T11:02:44;22.50;99.90
15241;DHT22;7723;52.170;9.978;2023-07-20T11:05:35;22.80;1.00
15241;DHT22;7723;52.170;9.978;2023-07-20T11:08:04;23.00;1.00
15241;DHT22;7723;52.170;9.978;2023-07-20T11:10:32;23.00;99.90
15241;DHT22;7723;52.170;9.978;2023-07-20T11:13:20;22.60;99.90
15241;DHT22;7723;52.170;9.978;2023-07-20T11:16:01;22.60;1.00
15241;DHT22;7723;52.170;9.978;2023-07-20T11:18:29;22.90;1.00
15241;DHT22;7723;52.170;9.978;2023-07-20T11:20:58;22.60;99.90
15241;DHT22;7723;52.170;9.978;2023-07-20T11:23:25;22.80;1.00
15241;DHT22;7723;52.170;9.978;2023-07-20T11:25:53;22.80;1.00
15241;DHT22;7723;52.170;9.978;2023-07-20T11:28:20;23.10;1.00
15241;DHT22;7723;52.170;9.978;2023-07-20T11:30:52;23.00;1.00
15241;DHT22;7723;52.170;9.978;2023-07-20T11:33:19;22.60;1.00
15241;DHT22;7723;52.170;9.978;2023-07-20T11:35:48;22.40;1.00
15241;DHT22;7723;52.170;9.978;2023-07-20T11:38:18;22.70;1.00
15241;DHT22;7723;52.170;9.978;2023-07-20T11:40:46;22.50;1.00
15241;DHT22;7723;52.170;9.978;2023-07-20T11:43:13;22.30;1.00
15241;DHT22;7723;52.170;9.978;2023-07-20T11:45:40;22.10;1.00
15241;DHT22;7723;52.170;9.978;2023-07-20T11:48:14;21.90;99.90
15241;DHT22;7723;52.170;9.978;2023-07-20T11:50:42;21.80;1.00
15241;DHT22;7723;52.170;9.978;2023-07-20T11:53:11;21.60;37.30
15241;DHT22;7723;52.170;9.978;2023-07-20T11:55:40;21.40;99.90
15241;DHT22;7723;52.170;9.978;2023-07-20T11:58:09;21.00;1.00
15241;DHT22;7723;52.170;9.978;2023-07-20T12:00:38;20.90;1.00
15241;DHT22;7723;52.170;9.978;2023-07-20T12:03:06;20.70;1.00
15241;DHT22;7723;52.170;9.978;2023-07-20T12:05:33;20.80;1.00
15241;DHT22;7723;52.170;9.978;2023-07-20T12:08:01;21.00;99.90
15241;DHT22;7723;52.170;9.978;2023-07-20T12:10:28;21.20;1.00
15241;DHT22;7723;52.170;9.978;2023-07-20T12:13:01;21.40;99.90
15241;DHT22;7723;52.170;9.978;2023-07-20T12:15:29;21.30;1.00
15241;DHT22;7723;52.170;9.978;2023-07-20T12:17:58;21.00;1.00
15241;DHT22;7723;52.170;9.978;2023-07-20T12:20:28;20.80;1.00
15241;DHT22;7723;52.170;9.978;2023-07-20T12:23:01;20.80;1.00
15241;DHT22;7723;52.170;9.978;2023-07-20T12:25:36;20.90;99.90
15241;DHT22;7723;52.170;9.978;2023-07-20T12:28:07;20.70;99.90
15241;DHT22;7723;52.170;9.978;2023-07-20T12:30:35;20.50;99.90
15241;DHT22;7723;52.170;9.978;2023-07-20T12:33:03;20.40;1.00
15241;DHT22;7723;52.170;9.978;2023-07-20T12:35:31;20.40;94.20
15241;DHT22;7723;52.170;9.978;2023-07-20T12:37:58;20.40;99.90
15241;DHT22;7723;52.170;9.978;2023-07-20T12:40:26;20.50;1.00
15241;DHT22;7723;52.170;9.978;2023-07-20T12:42:53;20.80;1.00
15241;DHT22;7723;52.170;9.978;2023-07-20T12:45:22;21.20;1.00
15241;DHT22;7723;52.170;9.978;2023-07-20T12:47:49;21.50;1.00
15241;DHT22;7723;52.170;9.978;2023-07-20T12:50:16;21.40;1.00
15241;DHT22;7723;52.170;9.978;2023-07-20T12:52:44;21.40;1.00
15241;DHT22;7723;52.170;9.978;2023-07-20T12:55:11;21.60;99.90
15241;DHT22;7723;52.170;9.978;2023-07-20T12:57:40;21.80;99.90
15241;DHT22;7723;52.170;9.978;2023-07-20T13:00:12;21.90;1.00
15241;DHT22;7723;52.170;9.978;2023-07-20T13:02:44;21.70;1.00
15241;DHT22;7723;52.170;9.978;2023-07-20T13:05:15;21.70;99.90
15241;DHT22;7723;52.170;9.978;2023-07-20T13:07:42;21.30;1.00
15241;DHT22;7723;52.170;9.978;2023-07-20T13:10:10;21.40;1.00
15241;DHT22;7723;52.170;9.978;2023-07-20T13:12:38;21.50;99.90
15241;DHT22;7723;52.170;9.978;2023-07-20T13:15:07;21.60;99.90
15241;DHT22;7723;52.170;9.978;2023-07-20T13:17:35;21.50;99.90
15241;DHT22;7723;52.170;9.978;2023-07-20T13:20:06;21.60;99.90
15241;DHT22;7723;52.170;9.978;2023-07-20T13:22:35;21.60;1.00
15241;DHT22;7723;52.170;9.978;2023-07-20T13:25:03;21.70;99.90
15241;DHT22;7723;52.170;9.978;2023-07-20T13:27:30;21.40;99.90
15241;DHT22;7723;52.170;9.978;2023-07-20T13:29:58;21.30;1.00
15241;DHT22;7723;52.170;9.978;2023-07-20T13:32:26;21.30;1.00
15241;DHT22;7723;52.170;9.978;2023-07-20T13:34:53;21.50;99.90
15241;DHT22;7723;52.170;9.978;2023-07-20T13:37:22;21.50;1.00
15241;DHT22;7723;52.170;9.978;2023-07-20T13:39:49;21.60;1.00
15241;DHT22;7723;52.170;9.978;2023-07-20T13:42:16;21.70;99.90
15241;DHT22;7723;52.170;9.978;2023-07-20T13:44:43;21.60;99.90
15241;DHT22;7723;52.170;9.978;2023-07-20T13:47:12;21.50;99.90
15241;DHT22;7723;52.170;9.978;2023-07-20T13:49:39;21.30;1.00
15241;DHT22;7723;52.170;9.978;2023-07-20T13:52:06;21.30;61.40
15241;DHT22;7723;52.170;9.978;2023-07-20T13:54:35;21.30;99.90
15241;DHT22;7723;52.170;9.978;2023-07-20T13:57:03;21.10;27.10
15241;DHT22;7723;52.170;9.978;2023-07-20T13:59:30;21.10;99.90
15241;DHT22;7723;52.170;9.978;2023-07-20T14:01:57;21.00;99.90
15241;DHT22;7723;52.170;9.978;2023-07-20T14:04:24;21.00;99.90
15241;DHT22;7723;52.170;9.978;2023-07-20T14:06:52;20.90;1.00
15241;DHT22;7723;52.170;9.978;2023-07-20T14:09:19;20.70;2.90
15241;DHT22;7723;52.170;9.978;2023-07-20T14:11:47;20.80;1.00
15241;DHT22;7723;52.170;9.978;2023-07-20T14:14:14;20.60;56.80
15241;DHT22;7723;52.170;9.978;2023-07-20T14:16:42;20.40;99.90
15241;DHT22;7723;52.170;9.978;2023-07-20T14:19:09;20.40;25.50
15241;DHT22;7723;52.170;9.978;2023-07-20T14:21:36;20.40;79.20
15241;DHT22;7723;52.170;9.978;2023-07-20T14:24:04;20.40;1.00
15241;DHT22;7723;52.170;9.978;2023-07-20T14:26:31;20.40;99.90
15241;DHT22;7723;52.170;9.978;2023-07-20T14:29:00;20.60;99.90
15241;DHT22;7723;52.170;9.978;2023-07-20T14:31:27;20.50;1.00
15241;DHT22;7723;52.170;9.978;2023-07-20T14:33:55;20.70;1.00
15241;DHT22;7723;52.170;9.978;2023-07-20T14:36:22;20.80;99.90
15241;DHT22;7723;52.170;9.978;2023-07-20T14:38:49;20.90;99.90
15241;DHT22;7723;52.170;9.978;2023-07-20T14:41:16;21.10;99.90
15241;DHT22;7723;52.170;9.978;2023-07-20T14:43:43;21.40;1.00
15241;DHT22;7723;52.170;9.978;2023-07-20T14:46:12;21.70;99.90
15241;DHT22;7723;52.170;9.978;2023-07-20T14:48:39;22.10;99.90
15241;DHT22;7723;52.170;9.978;2023-07-20T14:51:06;22.30;99.90
15241;DHT22;7723;52.170;9.978;2023-07-20T14:53:33;21.90;99.90
15241;DHT22;7723;52.170;9.978;2023-07-20T14:56:00;21.90;99.90
15241;DHT22;7723;52.170;9.978;2023-07-20T14:58:28;22.10;99.90
15241;DHT22;7723;52.170;9.978;2023-07-20T15:00:55;22.10;99.90
15241;DHT22;7723;52.170;9.978;2023-07-20T15:03:23;21.90;99.90
15241;DHT22;7723;52.170;9.978;2023-07-20T15:05:50;21.80;99.90
15241;DHT22;7723;52.170;9.978;2023-07-20T15:08:17;21.70;99.90
15241;DHT22;7723;52.170;9.978;2023-07-20T15:10:45;21.60;99.90
15241;DHT22;7723;52.170;9.978;2023-07-20T15:13:12;21.60;99.90
15241;DHT22;7723;52.170;9.978;2023-07-20T15:15:40;21.50;99.90
15241;DHT22;7723;52.170;9.978;2023-07-20T15:18:07;21.60;1.00
15241;DHT22;7723;52.170;9.978;2023-07-20T15:20:35;21.60;1.00
15241;DHT22;7723;52.170;9.978;2023-07-20T15:23:02;21.80;99.90
15241;DHT22;7723;52.170;9.978;2023-07-20T15:25:32;21.70;99.90
15241;DHT22;7723;52.170;9.978;2023-07-20T15:28:01;21.70;1.00
15241;DHT22;7723;52.170;9.978;2023-07-20T15:30:29;21.70;99.90
15241;DHT22;7723;52.170;9.978;2023-07-20T15:32:56;21.50;1.00
15241;DHT22;7723;52.170;9.978;2023-07-20T15:35:24;21.40;99.90
15241;DHT22;7723;52.170;9.978;2023-07-20T15:37:57;21.40;99.90
15241;DHT22;7723;52.170;9.978;2023-07-20T15:40:26;21.40;62.90
15241;DHT22;7723;52.170;9.978;2023-07-20T15:42:53;21.50;1.00
15241;DHT22;7723;52.170;9.978;2023-07-20T15:45:20;21.40;1.00
15241;DHT22;7723;52.170;9.978;2023-07-20T15:47:47;21.40;99.90
15241;DHT22;7723;52.170;9.978;2023-07-20T15:50:14;21.40;1.00
15241;DHT22;7723;52.170;9.978;2023-07-20T15:52:42;21.40;95.20
15241;DHT22;7723;52.170;9.978;2023-07-20T15:55:10;21.40;99.90
15241;DHT22;7723;52.170;9.978;2023-07-20T15:57:38;21.60;99.90
15241;DHT22;7723;52.170;9.978;2023-07-20T16:00:06;21.70;1.00